Time,TemperatureF,DewpointF,PressureIn,WindDirection,WindDirectionDegrees,WindSpeedMPH,WindSpeedGustMPH,Humidity,HourlyPrecipIn,Conditions,Clouds,dailyrainin,SoftwareType,DateUTC
2013-07-01 00:02:00,68.0,-99.9,-100.00,NNE,15,8.0,10.0,-999,0.00,,,0.00,,2013-07-01 05:02:00,
2013-07-01 00:11:00,68.0,-99.9,-100.00,NNE,15,8.0,10.0,-999,0.00,,,0.00,,2013-07-01 05:11:00,
2013-07-01 00:22:00,68.0,-99.9,-100.00,NNE,15,8.0,10.0,-999,0.00,,,0.00,,2013-07-01 05:22:00,
2013-07-01 00:42:00,66.0,-99.9,-100.00,NNE,16,7.0,9.0,-999,0.00,,,0.00,,2013-07-01 05:42:00,
2013-07-01 00:52:00,66.0,-99.9,-100.00,NNE,16,7.0,9.0,-999,0.00,,,0.00,,2013-07-01 05:52:00,
2013-07-01 01:12:00,66.0,-99.9,-100.00,NNE,12,6.0,8.0,-999,0.00,,,0.00,,2013-07-01 06:12:00,
2013-07-01 01:24:00,66.0,-99.9,-100.00,NNE,12,6.0,8.0,-999,0.00,,,0.00,,2013-07-01 06:24:00,
2013-07-01 01:43:00,64.0,-99.9,-100.00,NNE,23,3.0,5.0,-999,0.00,,,0.00,,2013-07-01 06:43:00,
2013-07-01 01:53:00,64.0,-99.9,-100.00,NNE,23,3.0,5.0,-999,0.00,,,0.00,,2013-07-01 06:53:00,
2013-07-01 02:12:00,63.0,-99.9,-100.00,East,99,1.0,2.0,-999,0.00,,,0.00,,2013-07-01 07:12:00,
2013-07-01 02:22:00,63.0,-99.9,-100.00,East,99,1.0,2.0,-999,0.00,,,0.00,,2013-07-01 07:22:00,
2013-07-01 02:43:00,63.0,-99.9,-100.00,NNW,344,5.0,8.0,-999,0.00,,,0.00,,2013-07-01 07:43:00,
2013-07-01 02:53:00,63.0,-99.9,-100.00,NNW,344,5.0,8.0,-999,0.00,,,0.00,,2013-07-01 07:53:00,
2013-07-01 03:12:00,64.0,-99.9,-100.00,NNW,339,5.0,8.0,-999,0.00,,,-99.99,,2013-07-01 08:12:00,
2013-07-01 03:22:00,64.0,-99.9,-100.00,NNW,339,5.0,8.0,-999,0.00,,,-99.99,,2013-07-01 08:22:00,
2013-07-01 03:43:00,62.0,-99.9,-100.00,NW,326,5.0,7.0,-999,0.00,,,0.00,,2013-07-01 08:43:00,
2013-07-01 03:52:00,62.0,-99.9,-100.00,NW,326,5.0,7.0,-999,0.00,,,0.00,,2013-07-01 08:52:00,
2013-07-01 04:12:00,63.0,-99.9,-100.00,NNW,331,7.0,9.0,-999,0.00,,,0.00,,2013-07-01 09:12:00,
2013-07-01 04:22:00,63.0,-99.9,-100.00,NNW,331,7.0,9.0,-999,0.00,,,0.00,,2013-07-01 09:22:00,
2013-07-01 04:43:00,62.0,-99.9,-100.00,North,355,5.0,8.0,-999,0.00,,,0.00,,2013-07-01 09:43:00,
2013-07-01 04:53:00,62.0,-99.9,-100.00,North,355,5.0,8.0,-999,0.00,,,0.00,,2013-07-01 09:53:00,
2013-07-01 05:12:00,61.0,-99.9,-100.00,NNW,334,7.0,9.0,-999,0.00,,,0.00,,2013-07-01 10:12:00,
2013-07-01 05:22:00,61.0,-99.9,-100.00,NNW,334,7.0,9.0,-999,0.00,,,0.00,,2013-07-01 10:22:00,
2013-07-01 05:43:00,61.0,-99.9,-100.00,NNW,345,7.0,11.0,-999,0.00,,,0.00,,2013-07-01 10:43:00,
2013-07-01 05:52:00,61.0,-99.9,-100.00,NNW,345,7.0,11.0,-999,0.00,,,0.00,,2013-07-01 10:52:00,
2013-07-01 06:12:00,61.0,-99.9,-100.00,North,351,8.0,10.0,-999,0.00,,,0.00,,2013-07-01 11:12:00,
2013-07-01 06:22:00,61.0,-99.9,-100.00,North,351,8.0,10.0,-999,0.00,,,0.00,,2013-07-01 11:22:00,
2013-07-01 06:30:00,62.0,-99.9,-100.00,North,-999,8.0,11.0,-999,0.00,,,0.00,,2013-07-01 11:30:00,
2013-07-01 06:43:00,61.0,-99.9,-100.00,North,-999,8.0,13.0,-999,0.00,,,0.00,,2013-07-01 11:43:00,
2013-07-01 06:52:00,61.0,-99.9,-100.00,North,-999,8.0,13.0,-999,0.00,,,0.00,,2013-07-01 11:52:00,
2013-07-01 07:11:00,62.0,-99.9,-100.00,North,-999,8.0,11.0,-999,0.00,,,0.00,,2013-07-01 12:11:00,
2013-07-01 07:22:00,62.0,-99.9,-100.00,North,-999,8.0,11.0,-999,0.00,,,0.00,,2013-07-01 12:22:00,
2013-07-01 08:12:00,64.0,-99.9,-100.00,NNE,17,9.0,14.0,-999,0.00,,,0.00,,2013-07-01 13:12:00,
2013-07-01 08:23:00,64.0,-99.9,-100.00,NNE,17,9.0,14.0,-999,0.00,,,0.00,,2013-07-01 13:23:00,
2013-07-01 08:30:00,65.0,-99.9,-100.00,NNE,31,9.0,14.0,-999,0.00,,,0.00,,2013-07-01 13:30:00,
2013-07-01 08:43:00,65.0,-99.9,-100.00,NNE,23,10.0,12.0,-999,0.00,,,0.00,,2013-07-01 13:43:00,
2013-07-01 08:53:00,65.0,-99.9,-100.00,NNE,23,10.0,12.0,-999,0.00,,,0.00,,2013-07-01 13:53:00,
2013-07-01 09:11:00,65.0,-99.9,-100.00,NNE,31,9.0,14.0,-999,0.00,,,0.00,,2013-07-01 14:11:00,
2013-07-01 09:22:00,65.0,-99.9,-100.00,NNE,31,9.0,14.0,-999,0.00,,,0.00,,2013-07-01 14:22:00,
2013-07-01 10:12:00,69.0,-99.9,-100.00,NNE,31,6.0,9.0,-999,0.00,,,0.00,,2013-07-01 15:12:00,
2013-07-01 10:23:00,69.0,-99.9,-100.00,NNE,31,6.0,9.0,-999,0.00,,,0.00,,2013-07-01 15:23:00,
2013-07-01 10:30:00,73.0,-99.9,-100.00,NNE,32,8.0,12.0,-999,0.00,,,0.00,,2013-07-01 15:30:00,
2013-07-01 10:44:00,70.0,-99.9,-100.00,NNE,29,6.0,10.0,-999,0.00,,,0.00,,2013-07-01 15:44:00,
2013-07-01 10:53:00,70.0,-99.9,-100.00,NNE,29,6.0,10.0,-999,0.00,,,0.00,,2013-07-01 15:53:00,
2013-07-01 11:11:00,73.0,-99.9,-100.00,NNE,32,8.0,12.0,-999,0.00,,,0.00,,2013-07-01 16:11:00,
2013-07-01 11:22:00,73.0,-99.9,-100.00,NNE,32,8.0,12.0,-999,0.00,,,0.00,,2013-07-01 16:22:00,
2013-07-01 13:11:00,74.0,-99.9,-100.00,NE,48,12.0,18.0,-999,-99.99,,,0.00,,2013-07-01 18:11:00,
2013-07-01 13:22:00,74.0,-99.9,-100.00,NE,48,12.0,18.0,-999,-99.99,,,0.00,,2013-07-01 18:22:00,
2013-07-01 13:30:00,76.0,-99.9,-100.00,NNE,19,13.0,20.0,-999,0.00,,,0.00,,2013-07-01 18:30:00,
2013-07-01 13:44:00,75.0,-99.9,-100.00,NNE,31,14.0,19.0,-999,0.00,,,0.00,,2013-07-01 18:44:00,
2013-07-01 13:53:00,75.0,-99.9,-100.00,NNE,31,14.0,19.0,-999,0.00,,,0.00,,2013-07-01 18:53:00,
2013-07-01 14:11:00,76.0,-99.9,-100.00,NNE,19,13.0,20.0,-999,0.00,,,0.00,,2013-07-01 19:11:00,
2013-07-01 14:22:00,76.0,-99.9,-100.00,NNE,19,13.0,20.0,-999,0.00,,,0.00,,2013-07-01 19:22:00,
2013-07-01 14:30:00,78.0,-99.9,-100.00,NNE,32,16.0,23.0,-999,0.00,,,0.00,,2013-07-01 19:30:00,
2013-07-01 15:11:00,78.0,-99.9,-100.00,NNE,32,16.0,23.0,-999,0.00,,,0.00,,2013-07-01 20:11:00,
2013-07-01 15:22:00,78.0,-99.9,-100.00,NNE,32,16.0,23.0,-999,0.00,,,0.00,,2013-07-01 20:22:00,
2013-07-01 16:11:00,77.0,-99.9,-100.00,ENE,57,14.0,17.0,-999,0.00,,,-99.99,,2013-07-01 21:11:00,
2013-07-01 16:24:00,77.0,-99.9,-100.00,ENE,57,14.0,17.0,-999,0.00,,,-99.99,,2013-07-01 21:24:00,
2013-07-01 16:44:00,78.0,-99.9,-100.00,NE,46,13.0,18.0,-999,0.00,,,0.00,,2013-07-01 21:44:00,
2013-07-01 16:53:00,78.0,-99.9,-100.00,NE,46,13.0,18.0,-999,0.00,,,0.00,,2013-07-01 21:53:00,
2013-07-01 17:12:00,77.0,-99.9,-100.00,NE,56,13.0,20.0,-999,0.00,,,0.00,,2013-07-01 22:12:00,
2013-07-01 17:24:00,77.0,-99.9,-100.00,NE,56,13.0,20.0,-999,0.00,,,0.00,,2013-07-01 22:24:00,
2013-07-01 17:43:00,77.0,-99.9,-100.00,ENE,58,13.0,19.0,-999,0.00,,,0.00,,2013-07-01 22:43:00,
2013-07-01 17:53:00,77.0,-99.9,-100.00,ENE,58,13.0,19.0,-999,0.00,,,0.00,,2013-07-01 22:53:00,
2013-07-01 18:11:00,77.0,-99.9,-100.00,NE,55,15.0,20.0,-999,0.00,,,0.00,,2013-07-01 23:11:00,
2013-07-01 18:22:00,77.0,-99.9,-100.00,NE,55,15.0,20.0,-999,0.00,,,0.00,,2013-07-01 23:22:00,
2013-07-01 18:30:00,77.0,-99.9,-100.00,NE,37,12.0,17.0,-999,0.00,,,0.00,,2013-07-01 23:30:00,
2013-07-01 18:44:00,78.0,-99.9,-100.00,NE,44,13.0,21.0,-999,0.00,,,0.00,,2013-07-01 23:44:00,
2013-07-01 18:53:00,78.0,-99.9,-100.00,NE,44,13.0,21.0,-999,0.00,,,0.00,,2013-07-01 23:53:00,
2013-07-01 19:12:00,77.0,-99.9,-100.00,NE,37,12.0,17.0,-999,0.00,,,0.00,,2013-07-02 00:12:00,
2013-07-01 19:22:00,77.0,-99.9,-100.00,NE,37,12.0,17.0,-999,0.00,,,0.00,,2013-07-02 00:22:00,
2013-07-01 19:43:00,77.0,-99.9,-100.00,ENE,57,14.0,18.0,-999,0.00,,,0.00,,2013-07-02 00:43:00,
2013-07-01 19:53:00,77.0,-99.9,-100.00,ENE,57,14.0,18.0,-999,0.00,,,0.00,,2013-07-02 00:53:00,
2013-07-01 20:11:00,77.0,-99.9,-100.00,NE,51,12.0,17.0,-999,0.00,,,0.00,,2013-07-02 01:11:00,
2013-07-01 20:22:00,77.0,-99.9,-100.00,NE,51,12.0,17.0,-999,0.00,,,0.00,,2013-07-02 01:22:00,
2013-07-01 20:30:00,74.0,-99.9,-100.00,NNE,31,8.0,11.0,-999,0.00,,,0.00,,2013-07-02 01:30:00,
2013-07-01 20:43:00,76.0,-99.9,-100.00,ENE,61,11.0,14.0,-999,0.00,,,0.00,,2013-07-02 01:43:00,
2013-07-01 20:53:00,76.0,-99.9,-100.00,ENE,61,11.0,14.0,-999,0.00,,,0.00,,2013-07-02 01:53:00,
2013-07-01 21:12:00,74.0,-99.9,-100.00,NNE,31,8.0,11.0,-999,0.00,,,0.00,,2013-07-02 02:12:00,
2013-07-01 21:22:00,74.0,-99.9,-100.00,NNE,31,8.0,11.0,-999,0.00,,,0.00,,2013-07-02 02:22:00,
2013-07-01 22:12:00,71.0,-99.9,-100.00,NE,41,6.0,8.0,-999,0.00,,,0.00,,2013-07-02 03:12:00,
2013-07-01 22:24:00,71.0,-99.9,-100.00,NE,41,6.0,8.0,-999,0.00,,,0.00,,2013-07-02 03:24:00,
2013-07-01 22:43:00,70.0,-99.9,-100.00,NNE,20,4.0,6.0,-999,0.00,,,0.00,,2013-07-02 03:43:00,
2013-07-01 22:53:00,70.0,-99.9,-100.00,NNE,20,4.0,6.0,-999,0.00,,,0.00,,2013-07-02 03:53:00,
2013-07-01 23:02:00,68.0,-99.9,-100.00,East,101,3.0,4.0,-999,0.00,,,0.00,,2013-07-02 04:02:00,
2013-07-01 23:11:00,68.0,-99.9,-100.00,East,101,3.0,4.0,-999,0.00,,,0.00,,2013-07-02 04:11:00,
2013-07-01 23:22:00,68.0,-99.9,-100.00,East,101,3.0,4.0,-999,0.00,,,0.00,,2013-07-02 04:22:00,
2013-07-01 23:32:00,68.0,-99.9,-100.00,East,95,2.0,3.0,-999,0.00,,,0.00,,2013-07-02 04:32:00,
2013-07-01 23:42:00,68.0,-99.9,-100.00,East,95,2.0,3.0,-999,0.00,,,0.00,,2013-07-02 04:42:00,
2013-07-01 23:54:00,68.0,-99.9,-100.00,East,95,2.0,3.0,-999,0.00,,,0.00,,2013-07-02 04:54:00,